Time;durP1;ratioP1;P1;durP2;ratioP2;P2;SDS_P1;SDS_P2;PMS_P1;PMS_P2;Temp;Humidity;BMP_temperature;BMP_pressure;BME280_temperature;BME280_humidity;BME280_pressure;Samples;Min_cycle;Max_cycle;Signal;HPM_P1;HPM_P2
2022/09/29 00:01:29;;;;;;;12.13;8.30;;;19.50;90.90;;;;;;1902299;75;21064;-55
2022/09/29 00:03:59;;;;;;;8.33;7.37;;;19.50;91.00;;;;;;1902199;75;21033;-55
2022/09/29 00:06:28;;;;;;;12.53;9.73;;;19.40;90.90;;;;;;1902265;75;21027;-55
2022/09/29 00:08:59;;;;;;;12.95;10.05;;;19.40;91.00;;;;;;1902193;75;21115;-55
2022/09/29 00:11:28;;;;;;;16.15;9.13;;;19.30;91.00;;;;;;1902294;75;21102;-55
2022/09/29 00:13:58;;;;;;;12.03;8.73;;;19.30;91.00;;;;;;1902222;75;21029;-55
2022/09/29 00:16:28;;;;;;;10.05;7.75;;;19.30;91.10;;;;;;1902172;75;21033;-55
2022/09/29 00:18:58;;;;;;;12.43;8.35;;;19.30;91.10;;;;;;1902204;75;21036;-55
2022/09/29 00:21:27;;;;;;;7.53;5.90;;;19.30;91.10;;;;;;1902238;75;21036;-55
2022/09/29 00:23:56;;;;;;;12.45;8.73;;;19.30;91.00;;;;;;1902167;75;21028;-55
2022/09/29 00:26:25;;;;;;;9.00;7.65;;;19.30;91.00;;;;;;1902361;75;21072;-55
2022/09/29 00:28:56;;;;;;;10.28;7.70;;;19.20;90.90;;;;;;1902238;75;21525;-55
2022/09/29 00:31:28;;;;;;;8.90;7.33;;;19.20;90.90;;;;;;1902250;75;21106;-55
2022/09/29 00:33:58;;;;;;;12.28;7.10;;;19.30;90.90;;;;;;1903905;75;21091;-57
2022/09/29 00:36:30;;;;;;;12.98;8.23;;;19.20;90.90;;;;;;1914849;75;21487;-57
2022/09/29 00:39:00;;;;;;;11.80;8.10;;;19.20;90.90;;;;;;1914953;75;21048;-57
2022/09/29 00:41:32;;;;;;;11.55;7.58;;;19.20;90.90;;;;;;1914812;75;21063;-57
2022/09/29 00:44:04;;;;;;;11.80;7.35;;;19.20;91.00;;;;;;1914813;75;21031;-57
2022/09/29 00:46:54;;;;;;;10.28;8.00;;;19.10;91.30;;;;;;1914982;75;21036;-56
2022/09/29 00:49:26;;;;;;;9.23;6.90;;;19.10;91.10;;;;;;1914791;75;21104;-56
2022/09/29 00:52:01;;;;;;;10.80;6.75;;;19.00;91.00;;;;;;1914841;75;21098;-56
2022/09/29 00:54:30;;;;;;;;;;;19.00;91.10;;;;;;1917708;75;21020;-55
2022/09/29 00:57:02;;;;;;;10.50;7.17;;;18.90;91.10;;;;;;1914842;75;20094;-57
2022/09/29 00:59:34;;;;;;;15.70;7.08;;;18.90;91.00;;;;;;1914942;75;21044;-56
2022/09/29 01:02:04;;;;;;;8.85;6.50;;;18.80;91.10;;;;;;1913318;75;21032;-57
2022/09/29 01:04:34;;;;;;;12.13;6.87;;;18.80;91.10;;;;;;1914731;75;21067;-57
2022/09/29 01:07:03;;;;;;;10.40;7.00;;;18.70;91.20;;;;;;1914949;75;21079;-57
2022/09/29 01:09:36;;;;;;;8.75;6.22;;;18.80;91.30;;;;;;1914856;75;21004;-57
2022/09/29 01:12:06;;;;;;;6.65;5.97;;;18.70;91.20;;;;;;1914856;75;21098;-57
2022/09/29 01:14:37;;;;;;;7.92;6.30;;;18.80;91.20;;;;;;1914888;75;21064;-56
2022/09/29 01:17:06;;;;;;;13.25;7.42;;;18.80;91.20;;;;;;1914776;75;21036;-56
2022/09/29 01:19:57;;;;;;;7.47;6.25;;;18.80;91.20;;;;;;1914828;75;21126;-57
2022/09/29 01:22:55;;;;;;;11.20;7.05;;;18.80;91.10;;;;;;1913538;75;21031;-57
2022/09/29 01:25:51;;;;;;;8.05;6.58;;;18.80;91.10;;;;;;1914727;75;21164;-57
2022/09/29 01:28:41;;;;;;;8.90;7.05;;;18.80;91.10;;;;;;1913459;75;21596;-56
2022/09/29 01:31:31;;;;;;;8.93;7.15;;;18.70;91.10;;;;;;1913314;75;21097;-56
2022/09/29 01:34:12;;;;;;;15.00;7.67;;;18.80;91.20;;;;;;1914198;75;21048;-57
2022/09/29 01:36:57;;;;;;;16.82;7.22;;;18.80;91.20;;;;;;1914833;75;21001;-56
2022/09/29 01:39:35;;;;;;;10.18;7.15;;;18.80;91.20;;;;;;1914180;75;21591;-56
2022/09/29 01:42:19;;;;;;;8.90;6.90;;;18.70;91.40;;;;;;1912927;75;21337;-56
2022/09/29 01:45:15;;;;;;;12.28;7.75;;;18.70;91.20;;;;;;1914762;75;21005;-56
2022/09/29 01:47:47;;;;;;;7.90;6.92;;;18.70;91.30;;;;;;1876653;75;21055;-57
2022/09/29 01:50:19;;;;;;;8.40;6.65;;;18.60;91.30;;;;;;1914615;73;21473;-57
2022/09/29 01:52:53;;;;;;;13.15;7.83;;;18.60;91.30;;;;;;1913475;75;21090;-57
2022/09/29 01:55:25;;;;;;;13.58;7.20;;;18.50;91.40;;;;;;1914618;75;21036;-56
2022/09/29 01:57:57;;;;;;;9.68;7.45;;;18.60;91.40;;;;;;1914929;75;21470;-57
2022/09/29 02:00:30;;;;;;;12.60;7.97;;;18.50;91.40;;;;;;1913617;75;21068;-57
2022/09/29 02:03:06;;;;;;;14.07;6.87;;;18.50;91.40;;;;;;1914517;75;21004;-57
2022/09/29 02:05:41;;;;;;;11.45;7.10;;;18.50;91.40;;;;;;1914773;75;21145;-56
2022/09/29 02:08:13;;;;;;;10.75;7.47;;;18.50;91.50;;;;;;1914853;75;21055;-57
2022/09/29 02:10:48;;;;;;;9.63;6.33;;;18.50;91.40;;;;;;1913533;74;21035;-57
2022/09/29 02:13:19;;;;;;;9.20;6.90;;;18.50;91.40;;;;;;1913165;75;21024;-57
2022/09/29 02:15:51;;;;;;;9.90;7.83;;;18.50;91.40;;;;;;1914839;75;21086;-57
2022/09/29 02:18:22;;;;;;;9.25;6.97;;;18.50;91.40;;;;;;1914697;75;21090;-57
2022/09/29 02:20:52;;;;;;;8.78;7.03;;;18.50;91.40;;;;;;1913910;75;21544;-57
2022/09/29 02:23:21;;;;;;;13.60;8.93;;;18.50;91.40;;;;;;1914783;75;21094;-57
2022/09/29 02:25:51;;;;;;;10.58;7.03;;;18.50;91.40;;;;;;1914640;75;21048;-57
2022/09/29 02:28:21;;;;;;;12.68;6.80;;;18.50;91.40;;;;;;1914724;75;21090;-57
2022/09/29 02:30:51;;;;;;;10.45;7.40;;;18.50;91.40;;;;;;1914715;75;21102;-57
2022/09/29 02:33:24;;;;;;;9.50;7.15;;;18.50;91.50;;;;;;1914729;75;21040;-57
2022/09/29 02:36:02;;;;;;;12.00;7.37;;;18.50;91.40;;;;;;1908846;75;21053;-57
2022/09/29 02:38:37;;;;;;;12.68;6.70;;;18.40;91.40;;;;;;1903652;75;21209;-57
2022/09/29 02:41:23;;;;;;;;;;;18.40;91.50;;;;;;1904363;75;21122;-56
2022/09/29 02:43:55;;;;;;;10.13;6.62;;;18.40;91.50;;;;;;1901962;75;20107;-57
2022/09/29 02:46:30;;;;;;;7.58;6.10;;;18.40;91.40;;;;;;1901538;75;21161;-56
2022/09/29 02:49:16;;;;;;;;;;;18.40;91.40;;;;;;1904116;75;21063;-56
2022/09/29 02:51:57;;;;;;;16.48;6.90;;;18.40;91.40;;;;;;1902143;75;20174;-57
2022/09/29 02:54:47;;;;;;;14.07;7.03;;;18.30;91.30;;;;;;1809448;75;21556;-56
2022/09/29 02:57:31;;;;;;;9.58;6.30;;;18.30;91.40;;;;;;1902085;75;21028;-57
2022/09/29 03:00:10;;;;;;;13.78;7.50;;;18.30;91.40;;;;;;1902244;75;21032;-57
2022/09/29 03:02:41;;;;;;;13.88;7.83;;;18.30;91.40;;;;;;1902241;75;21122;-57
2022/09/29 03:05:12;;;;;;;9.60;7.03;;;18.20;91.40;;;;;;1902156;75;21037;-57
2022/09/29 03:07:42;;;;;;;13.38;7.22;;;18.20;91.40;;;;;;1901420;75;21036;-56
2022/09/29 03:10:13;;;;;;;12.15;7.28;;;18.10;91.50;;;;;;1902160;75;21035;-57
2022/09/29 03:12:42;;;;;;;11.83;7.35;;;18.00;91.50;;;;;;1902156;75;21036;-56
2022/09/29 03:15:12;;;;;;;9.90;6.95;;;18.00;91.60;;;;;;1902202;75;21036;-56
2022/09/29 03:17:41;;;;;;;10.75;7.10;;;18.00;91.70;;;;;;1902068;75;21036;-56
2022/09/29 03:20:11;;;;;;;9.55;6.08;;;17.90;91.70;;;;;;1902131;75;21094;-56
2022/09/29 03:22:40;;;;;;;9.65;6.40;;;18.00;91.80;;;;;;1902083;75;21032;-56
2022/09/29 03:25:09;;;;;;;8.00;5.85;;;18.00;91.70;;;;;;1902133;75;21040;-57
2022/09/29 03:27:39;;;;;;;10.98;6.30;;;18.00;91.70;;;;;;1902135;75;21053;-57
2022/09/29 03:30:09;;;;;;;20.82;7.78;;;18.00;91.70;;;;;;1902146;75;21028;-57
2022/09/29 03:32:38;;;;;;;12.30;7.20;;;18.00;91.70;;;;;;1902182;75;21028;-57
2022/09/29 03:35:09;;;;;;;10.50;6.97;;;17.90;91.70;;;;;;1902301;75;21129;-56
2022/09/29 03:37:38;;;;;;;7.35;6.00;;;17.90;91.70;;;;;;1902176;75;21006;-57
2022/09/29 03:40:09;;;;;;;9.35;6.10;;;17.90;91.80;;;;;;1912947;75;21064;-56
2022/09/29 03:42:38;;;;;;;9.85;6.78;;;17.80;91.90;;;;;;1914851;75;21075;-56
2022/09/29 03:45:08;;;;;;;9.50;6.33;;;17.80;91.90;;;;;;1914882;75;21044;-57
2022/09/29 03:47:38;;;;;;;11.80;5.97;;;17.80;92.00;;;;;;1914878;75;21118;-57
2022/09/29 03:50:07;;;;;;;8.30;6.17;;;17.80;92.00;;;;;;1914834;75;20992;-57
2022/09/29 03:52:37;;;;;;;9.63;5.80;;;17.80;92.00;;;;;;1914885;75;21059;-56
2022/09/29 03:55:06;;;;;;;7.65;6.20;;;17.90;92.00;;;;;;1914826;75;21071;-56
2022/09/29 03:57:36;;;;;;;12.85;6.37;;;17.90;92.00;;;;;;1914769;75;21047;-57
2022/09/29 04:00:06;;;;;;;7.87;5.95;;;17.90;92.00;;;;;;1914951;75;21071;-57
2022/09/29 04:02:36;;;;;;;8.33;5.70;;;17.90;92.00;;;;;;1914802;75;21120;-56
2022/09/29 04:05:06;;;;;;;10.55;6.55;;;17.90;92.00;;;;;;1914809;75;21099;-57
2022/09/29 04:07:35;;;;;;;10.35;5.03;;;17.90;91.90;;;;;;1914942;75;21255;-56
2022/09/29 04:10:05;;;;;;;12.60;6.60;;;17.90;91.90;;;;;;1914793;75;21085;-57
2022/09/29 04:12:34;;;;;;;14.00;8.63;;;17.90;91.80;;;;;;1914894;75;21028;-56
2022/09/29 04:15:04;;;;;;;21.23;7.67;;;18.00;91.80;;;;;;1914915;75;21082;-57
2022/09/29 04:17:33;;;;;;;9.83;6.20;;;18.00;91.70;;;;;;1914756;75;21027;-57
2022/09/29 04:20:02;;;;;;;13.68;5.97;;;18.00;91.70;;;;;;1914892;75;21024;-56
2022/09/29 04:22:32;;;;;;;15.32;7.17;;;18.10;91.60;;;;;;1914693;75;21036;-56
2022/09/29 04:25:01;;;;;;;11.93;6.75;;;18.10;91.50;;;;;;1914804;75;21090;-56
2022/09/29 04:27:31;;;;;;;9.83;4.58;;;18.20;91.40;;;;;;1914731;75;21102;-56
2022/09/29 04:30:00;;;;;;;12.28;4.78;;;18.20;91.30;;;;;;1914851;75;21032;-56
2022/09/29 04:32:30;;;;;;;10.70;5.33;;;18.30;91.30;;;;;;1914734;75;21083;-56
2022/09/29 04:34:59;;;;;;;8.80;4.85;;;18.30;91.30;;;;;;1914740;75;21086;-56
2022/09/29 04:37:28;;;;;;;9.40;5.33;;;18.40;91.20;;;;;;1914780;75;21008;-56
2022/09/29 04:39:58;;;;;;;8.65;4.87;;;18.40;91.20;;;;;;1897176;75;21056;-57
2022/09/29 04:42:28;;;;;;;8.70;6.28;;;18.50;91.20;;;;;;1882344;76;21104;-56
2022/09/29 04:44:57;;;;;;;14.07;7.95;;;18.50;91.20;;;;;;1882245;76;21098;-56
2022/09/29 04:47:26;;;;;;;10.43;5.08;;;18.60;91.10;;;;;;1882330;75;21067;-56
2022/09/29 04:49:56;;;;;;;11.12;6.45;;;18.60;91.10;;;;;;1882379;75;21083;-56
2022/09/29 04:52:25;;;;;;;12.18;6.03;;;18.80;91.10;;;;;;1882261;75;21016;-56
2022/09/29 04:54:54;;;;;;;12.58;6.45;;;18.80;91.00;;;;;;1882423;75;21109;-56
2022/09/29 04:57:24;;;;;;;7.72;4.58;;;18.90;90.90;;;;;;1882230;75;21518;-56
2022/09/29 04:59:53;;;;;;;7.08;4.87;;;18.90;90.80;;;;;;1882330;75;21039;-56
2022/09/29 05:02:22;;;;;;;12.68;4.58;;;19.00;90.70;;;;;;1882307;76;21040;-57
2022/09/29 05:04:52;;;;;;;10.08;5.03;;;19.00;90.60;;;;;;1882196;75;21102;-56
2022/09/29 05:07:21;;;;;;;11.03;4.45;;;19.20;90.60;;;;;;1882304;76;21025;-57
2022/09/29 05:09:50;;;;;;;8.38;4.67;;;19.20;90.50;;;;;;1882172;75;21012;-56
2022/09/29 05:12:20;;;;;;;9.18;4.40;;;19.30;90.60;;;;;;1882190;75;21059;-56
2022/09/29 05:14:49;;;;;;;13.05;4.55;;;19.30;90.30;;;;;;1882237;76;21012;-56
2022/09/29 05:17:18;;;;;;;11.63;4.00;;;19.40;90.20;;;;;;1882225;75;21056;-56
2022/09/29 05:19:47;;;;;;;6.78;3.80;;;19.50;90.10;;;;;;1882348;75;21298;-56
2022/09/29 05:22:23;;;;;;;8.95;4.53;;;19.60;90.00;;;;;;1882365;76;21046;-56
2022/09/29 05:24:48;;;;;;;11.95;4.03;;;19.60;89.80;;;;;;1881420;75;21060;-56
2022/09/29 05:27:17;;;;;;;5.30;3.37;;;19.70;89.40;;;;;;1882322;75;21105;-56
2022/09/29 05:29:46;;;;;;;4.45;3.40;;;19.80;89.00;;;;;;1882281;76;21153;-56
2022/09/29 05:32:16;;;;;;;3.35;2.92;;;19.80;88.30;;;;;;1882254;75;21285;-56
2022/09/29 05:34:45;;;;;;;5.25;2.85;;;19.90;88.00;;;;;;1882288;75;21040;-56
2022/09/29 05:37:14;;;;;;;6.12;2.67;;;20.00;87.40;;;;;;1882444;75;21427;-56
2022/09/29 05:39:43;;;;;;;6.10;2.80;;;20.10;86.50;;;;;;1886504;75;21151;-56
2022/09/29 05:42:13;;;;;;;5.72;2.15;;;20.10;85.70;;;;;;1902043;75;21095;-56
2022/09/29 05:44:43;;;;;;;7.65;2.40;;;20.20;84.60;;;;;;1902076;75;21122;-56
2022/09/29 05:47:12;;;;;;;5.67;2.83;;;20.30;84.10;;;;;;1902049;75;21098;-57
2022/09/29 05:49:41;;;;;;;6.58;3.25;;;20.30;83.90;;;;;;1902020;75;21099;-56
2022/09/29 05:52:11;;;;;;;9.35;2.50;;;20.40;83.70;;;;;;1901906;75;21029;-56
2022/09/29 05:54:40;;;;;;;5.53;2.00;;;20.40;83.30;;;;;;1902013;75;21130;-56
2022/09/29 05:57:09;;;;;;;5.85;2.62;;;20.50;82.90;;;;;;1902106;75;21008;-56
2022/09/29 05:59:39;;;;;;;4.78;2.25;;;20.50;82.60;;;;;;1901993;75;21130;-56
2022/09/29 06:02:09;;;;;;;3.87;2.25;;;20.60;82.40;;;;;;1901911;75;21026;-56
2022/09/29 06:04:38;;;;;;;7.60;2.83;;;20.60;82.10;;;;;;1901992;75;21037;-56
2022/09/29 06:07:08;;;;;;;3.47;2.92;;;20.70;81.80;;;;;;1901991;75;21096;-56
2022/09/29 06:09:37;;;;;;;5.22;2.65;;;20.70;81.40;;;;;;1902051;75;21032;-56
2022/09/29 06:12:06;;;;;;;4.58;2.10;;;20.80;81.00;;;;;;1901921;75;21221;-56
2022/09/29 06:14:35;;;;;;;5.95;2.10;;;20.80;80.50;;;;;;1902025;75;21121;-56
2022/09/29 06:17:05;;;;;;;3.33;2.40;;;20.90;80.20;;;;;;1901961;75;21024;-57
2022/09/29 06:19:34;;;;;;;3.33;1.82;;;20.90;79.80;;;;;;1901969;75;21032;-56
2022/09/29 06:22:03;;;;;;;3.50;2.30;;;20.90;79.50;;;;;;1902114;75;21456;-56
2022/09/29 06:24:33;;;;;;;4.22;2.60;;;21.00;79.30;;;;;;1902164;75;21032;-57
2022/09/29 06:27:02;;;;;;;5.53;1.82;;;21.10;78.60;;;;;;1902086;75;21032;-56
2022/09/29 06:29:32;;;;;;;5.60;1.75;;;21.10;78.20;;;;;;1902049;75;21049;-57
2022/09/29 06:32:01;;;;;;;4.75;1.90;;;21.10;77.50;;;;;;1902043;75;21098;-57
2022/09/29 06:34:31;;;;;;;6.50;2.35;;;21.20;77.30;;;;;;1902041;75;21099;-57
2022/09/29 06:39:47;;;;;;;4.72;2.05;;;21.30;77.60;;;;;;1902058;75;21041;-57
2022/09/29 06:42:17;;;;;;;4.70;2.27;;;21.30;77.40;;;;;;1875341;76;21097;-57
2022/09/29 06:44:47;;;;;;;5.10;1.92;;;21.40;77.30;;;;;;1875092;76;21125;-57
2022/09/29 06:47:16;;;;;;;4.72;2.45;;;21.40;76.30;;;;;;1875059;76;21152;-57
2022/09/29 06:49:47;;;;;;;2.87;1.90;;;21.50;75.80;;;;;;1875074;76;21058;-56
2022/09/29 06:52:17;;;;;;;5.35;2.12;;;21.50;75.90;;;;;;1875064;76;21074;-56
2022/09/29 06:54:46;;;;;;;4.25;2.40;;;21.60;76.00;;;;;;1875210;76;21109;-56
2022/09/29 06:57:16;;;;;;;5.05;2.65;;;21.60;75.90;;;;;;1875143;76;21100;-57
2022/09/29 06:59:45;;;;;;;3.20;2.15;;;21.70;76.00;;;;;;1875147;76;21555;-57
2022/09/29 07:02:14;;;;;;;3.50;2.00;;;21.70;76.10;;;;;;1875152;76;21039;-57
2022/09/29 07:04:43;;;;;;;6.05;2.47;;;21.80;76.00;;;;;;1875090;76;21035;-56
2022/09/29 07:07:13;;;;;;;6.05;2.05;;;21.90;75.60;;;;;;1875241;76;21034;-57
2022/09/29 07:09:42;;;;;;;6.83;2.45;;;21.90;75.60;;;;;;1875352;76;21125;-57
2022/09/29 07:12:12;;;;;;;3.05;2.10;;;22.00;75.90;;;;;;1875351;76;21088;-57
2022/09/29 07:14:42;;;;;;;5.33;2.10;;;22.00;75.90;;;;;;1875368;76;21027;-56
2022/09/29 07:17:12;;;;;;;5.15;1.85;;;22.10;75.60;;;;;;1875330;76;21031;-57
2022/09/29 07:19:41;;;;;;;5.33;2.77;;;22.10;75.50;;;;;;1875184;76;21031;-56
2022/09/29 07:22:11;;;;;;;2.60;1.95;;;22.20;75.80;;;;;;1875355;76;21164;-57
2022/09/29 07:24:42;;;;;;;6.87;2.52;;;22.20;75.70;;;;;;1875239;76;21066;-56
2022/09/29 07:27:11;;;;;;;8.48;2.95;;;22.20;75.70;;;;;;1875425;76;21466;-56
2022/09/29 07:29:40;;;;;;;7.33;2.37;;;22.30;75.60;;;;;;1875376;76;21014;-56
2022/09/29 07:32:09;;;;;;;7.50;2.70;;;22.20;75.40;;;;;;1875196;76;21038;-56
2022/09/29 07:34:38;;;;;;;2.40;2.02;;;22.30;75.10;;;;;;1875411;76;21117;-56
2022/09/29 07:37:08;;;;;;;3.92;2.00;;;22.30;75.10;;;;;;1875328;76;21508;-57
2022/09/29 07:39:38;;;;;;;6.75;2.83;;;22.30;75.10;;;;;;1875391;76;21078;-56
2022/09/29 07:42:08;;;;;;;5.45;2.35;;;22.30;75.00;;;;;;1894082;75;21063;-57
2022/09/29 07:44:37;;;;;;;5.53;2.40;;;22.40;75.00;;;;;;1902039;75;21092;-57
2022/09/29 07:47:06;;;;;;;5.00;2.20;;;22.40;74.80;;;;;;1902166;75;21153;-56
2022/09/29 07:49:35;;;;;;;4.85;2.17;;;22.50;74.80;;;;;;1902128;75;21040;-56
2022/09/29 07:52:05;;;;;;;3.90;2.25;;;22.50;74.60;;;;;;1902234;75;21024;-57
2022/09/29 07:54:34;;;;;;;5.97;2.52;;;22.50;74.40;;;;;;1902374;75;21130;-56
2022/09/29 07:57:04;;;;;;;9.45;2.60;;;22.60;74.60;;;;;;1902135;75;21028;-57
2022/09/29 07:59:33;;;;;;;5.97;2.52;;;22.60;74.00;;;;;;1902238;75;21108;-56
2022/09/29 08:02:03;;;;;;;6.22;2.40;;;22.70;74.20;;;;;;1902254;75;21036;-56
2022/09/29 08:04:32;;;;;;;6.80;2.92;;;22.70;74.40;;;;;;1902124;75;21094;-56
2022/09/29 08:07:02;;;;;;;4.67;2.33;;;22.70;74.20;;;;;;1902246;75;21036;-57
2022/09/29 08:09:31;;;;;;;4.75;2.90;;;22.80;74.20;;;;;;1902056;75;21107;-56
2022/09/29 08:12:01;;;;;;;5.87;2.45;;;22.90;74.30;;;;;;1901975;75;21032;-57
2022/09/29 08:14:30;;;;;;;12.63;3.15;;;22.90;73.70;;;;;;1902083;75;21087;-56
2022/09/29 08:16:59;;;;;;;3.75;2.37;;;23.00;73.70;;;;;;1902035;75;21447;-56
2022/09/29 08:19:29;;;;;;;7.15;2.58;;;23.10;73.70;;;;;;1902016;75;21048;-56
2022/09/29 08:21:59;;;;;;;7.65;4.30;;;23.10;73.50;;;;;;1901968;75;21106;-56
2022/09/29 08:24:28;;;;;;;4.55;2.98;;;23.10;73.40;;;;;;1902015;75;21086;-56
2022/09/29 08:26:58;;;;;;;4.90;2.75;;;23.10;73.30;;;;;;1902101;75;21118;-56
2022/09/29 08:29:27;;;;;;;5.03;2.95;;;23.00;73.40;;;;;;1902162;75;21088;-56
2022/09/29 08:31:57;;;;;;;6.95;2.72;;;23.00;73.40;;;;;;1902179;75;21083;-57
2022/09/29 08:34:26;;;;;;;7.50;2.45;;;22.90;73.30;;;;;;1902105;75;21033;-56
2022/09/29 08:36:56;;;;;;;5.35;2.85;;;22.90;73.70;;;;;;1902097;75;21033;-56
2022/09/29 08:39:25;;;;;;;6.67;2.58;;;22.90;73.80;;;;;;1902170;75;21032;-57
2022/09/29 08:42:06;;;;;;;3.52;2.00;;;22.90;73.40;;;;;;1902137;75;21068;-56
2022/09/29 08:44:57;;;;;;;4.72;2.40;;;22.90;72.90;;;;;;1901511;75;21103;-57
2022/09/29 08:47:38;;;;;;;3.80;1.90;;;22.90;72.70;;;;;;1902021;75;21001;-57
2022/09/29 08:50:12;;;;;;;4.37;1.82;;;23.00;72.50;;;;;;1901060;75;21056;-56
2022/09/29 08:52:44;;;;;;;4.62;2.27;;;23.10;72.10;;;;;;1902181;75;21048;-56
2022/09/29 08:55:21;;;;;;;6.62;2.40;;;23.20;71.10;;;;;;1902235;75;21044;-56
2022/09/29 08:57:53;;;;;;;7.12;1.98;;;23.30;70.50;;;;;;1902218;75;21052;-57
2022/09/29 09:00:24;;;;;;;5.37;2.12;;;23.30;69.90;;;;;;1901761;75;21549;-57
2022/09/29 09:03:14;;;;;;;3.12;2.05;;;23.30;69.00;;;;;;1901852;75;21049;-56
2022/09/29 09:06:13;;;;;;;2.75;1.35;;;23.40;68.60;;;;;;1838394;75;21063;-56
2022/09/29 09:09:04;;;;;;;4.35;2.30;;;23.50;67.70;;;;;;1902290;75;21032;-57
2022/09/29 09:11:41;;;;;;;2.85;1.72;;;23.60;67.20;;;;;;1901423;75;21470;-57
2022/09/29 09:14:41;;;;;;;3.80;1.40;;;23.70;64.90;;;;;;1902290;75;21025;-56
2022/09/29 09:17:37;;;;;;;6.10;1.60;;;23.80;64.60;;;;;;1899886;75;21036;-57
2022/09/29 09:20:31;;;;;;;4.60;1.92;;;23.90;64.10;;;;;;1774230;80;21141;-56
2022/09/29 09:23:02;;;;;;;4.50;2.70;;;23.90;63.20;;;;;;1796867;79;21156;-58
2022/09/29 09:25:34;;;;;;;4.33;1.87;;;24.00;63.40;;;;;;1861251;75;21541;-59
2022/09/29 09:28:17;;;;;;;3.40;1.77;;;24.00;62.60;;;;;;1901510;75;21092;-58
2022/09/29 09:30:52;;;;;;;4.33;1.82;;;24.00;62.20;;;;;;1901800;75;21044;-58
2022/09/29 09:33:29;;;;;;;3.77;1.92;;;24.00;62.10;;;;;;1901539;75;21094;-58
2022/09/29 09:36:01;;;;;;;7.80;2.17;;;24.00;61.80;;;;;;1902697;75;21020;-59
2022/09/29 09:38:36;;;;;;;6.67;2.42;;;24.00;62.10;;;;;;1904404;75;21435;-58
2022/09/29 09:41:07;;;;;;;4.53;2.17;;;24.00;61.90;;;;;;1902818;74;21158;-58
2022/09/29 09:43:39;;;;;;;6.58;2.42;;;24.00;61.40;;;;;;1867960;75;21076;-58
2022/09/29 09:46:23;;;;;;;5.55;1.90;;;24.00;61.60;;;;;;1865242;75;21083;-58
2022/09/29 09:49:04;;;;;;;3.58;1.42;;;24.00;61.30;;;;;;1850049;77;21541;-58
2022/09/29 09:51:53;;;;;;;4.90;2.40;;;24.10;61.60;;;;;;1849974;76;21091;-58
2022/09/29 09:54:28;;;;;;;6.20;1.98;;;24.20;60.70;;;;;;1859257;76;21123;-58
2022/09/29 09:57:03;;;;;;;3.35;1.60;;;24.30;60.50;;;;;;1879309;75;21172;-58
2022/09/29 09:59:41;;;;;;;8.33;1.90;;;24.40;60.80;;;;;;1880961;76;21056;-58
2022/09/29 10:02:19;;;;;;;2.33;1.60;;;24.40;60.70;;;;;;1880730;75;21036;-57
2022/09/29 10:04:51;;;;;;;2.47;1.50;;;24.50;60.50;;;;;;1880887;76;21036;-58
2022/09/29 10:07:23;;;;;;;3.62;1.45;;;24.50;60.10;;;;;;1881386;76;21117;-58
2022/09/29 10:09:52;;;;;;;6.33;1.80;;;24.50;59.20;;;;;;1880803;76;21075;-58
2022/09/29 10:12:23;;;;;;;7.83;4.03;;;24.50;59.30;;;;;;1881574;75;21036;-58
2022/09/29 10:15:01;;;;;;;8.08;2.20;;;24.40;59.70;;;;;;1882257;75;21172;-58
2022/09/29 10:17:32;;;;;;;5.65;1.77;;;24.40;60.80;;;;;;1882203;76;21040;-57
2022/09/29 10:20:04;;;;;;;2.30;1.40;;;24.40;60.60;;;;;;1881049;76;21463;-57
2022/09/29 10:22:34;;;;;;;3.75;1.40;;;24.30;60.70;;;;;;1882297;76;21051;-57
2022/09/29 10:25:15;;;;;;;4.70;1.60;;;24.30;61.00;;;;;;1882218;75;21111;-58
2022/09/29 10:27:48;;;;;;;8.30;2.25;;;24.30;61.10;;;;;;1882255;76;21052;-58
2022/09/29 10:30:20;;;;;;;5.47;1.92;;;24.20;61.30;;;;;;1882240;75;21105;-58
2022/09/29 10:32:53;;;;;;;15.80;7.08;;;24.20;61.60;;;;;;1881479;75;21044;-58
2022/09/29 10:35:28;;;;;;;11.93;2.45;;;24.20;61.90;;;;;;1882180;75;21118;-57
2022/09/29 10:38:02;;;;;;;6.55;1.90;;;24.20;61.90;;;;;;1882245;76;21065;-58
2022/09/29 10:40:32;;;;;;;4.55;2.10;;;24.20;62.00;;;;;;1882302;75;21094;-57
2022/09/29 10:43:13;;;;;;;5.95;2.98;;;24.20;62.20;;;;;;1887974;75;21077;-58
2022/09/29 10:45:50;;;;;;;3.22;1.85;;;24.20;62.50;;;;;;1888247;75;21064;-58
2022/09/29 10:48:19;;;;;;;5.33;2.10;;;24.30;62.10;;;;;;1902298;75;21032;-58
2022/09/29 10:50:53;;;;;;;2.35;1.62;;;24.40;62.20;;;;;;1902290;75;21102;-58
2022/09/29 10:53:25;;;;;;;3.55;1.80;;;24.50;62.10;;;;;;1902263;75;21032;-58
2022/09/29 10:55:56;;;;;;;4.83;2.00;;;24.50;62.00;;;;;;1902270;75;21470;-58
